createdAt,value
2023-05-03T00:00:43.301Z,51.278675
2023-05-03T00:01:43.310Z,51.278610
2023-05-03T00:02:43.433Z,51.278606
2023-05-03T00:03:43.264Z,51.278511
2023-05-03T00:04:43.306Z,51.278595
2023-05-03T00:05:43.282Z,51.278595
2023-05-03T00:06:43.259Z,51.278629
2023-05-03T00:07:43.214Z,51.278656
2023-05-03T00:08:43.229Z,51.278679
2023-05-03T00:09:43.219Z,51.278603
2023-05-03T00:10:43.196Z,51.278603
2023-05-03T00:11:43.194Z,51.278545
2023-05-03T00:12:43.188Z,51.278553
2023-05-03T00:13:43.172Z,51.278603
2023-05-03T00:14:43.176Z,51.278526
2023-05-03T00:15:43.156Z,51.278549
2023-05-03T00:16:43.193Z,51.278580
2023-05-03T00:17:43.205Z,51.278595
2023-05-03T00:18:43.127Z,51.278679
2023-05-03T00:19:43.133Z,51.278545
2023-05-03T00:20:43.108Z,51.278542
2023-05-03T00:21:43.105Z,51.278652
2023-05-03T00:22:43.093Z,51.278538
2023-05-03T00:23:43.087Z,51.278542
2023-05-03T00:24:43.091Z,51.278542
2023-05-03T00:25:43.071Z,51.278587
2023-05-03T00:26:43.060Z,51.278606
2023-05-03T00:27:43.051Z,51.278591
2023-05-03T00:28:43.041Z,51.278625
2023-05-03T00:29:43.042Z,51.278580
2023-05-03T00:30:43.034Z,51.278511
2023-05-03T00:31:43.083Z,51.278599
2023-05-03T00:32:43.042Z,51.278553
2023-05-03T00:33:43.010Z,51.278595
2023-05-03T00:34:42.993Z,51.278461
2023-05-03T00:35:42.985Z,51.278492
2023-05-03T00:36:42.987Z,51.278618
2023-05-03T00:37:42.970Z,51.278584
2023-05-03T00:38:42.985Z,51.278545
2023-05-03T00:39:42.948Z,51.278557
2023-05-03T00:40:42.937Z,51.278568
2023-05-03T00:41:42.935Z,51.278534
2023-05-03T00:42:42.917Z,51.278496
2023-05-03T00:43:42.923Z,51.278637
2023-05-03T00:44:42.902Z,51.278633
2023-05-03T00:45:42.893Z,51.278557
2023-05-03T00:46:42.931Z,51.278599
2023-05-03T00:47:42.931Z,51.278603
2023-05-03T00:48:42.883Z,51.278584
2023-05-03T00:49:42.858Z,51.278603
2023-05-03T00:50:42.851Z,51.278625
2023-05-03T00:51:42.841Z,51.278599
2023-05-03T00:52:42.846Z,51.278629
2023-05-03T00:53:42.835Z,51.278610
2023-05-03T00:54:42.810Z,51.278549
2023-05-03T00:55:42.802Z,51.278534
2023-05-03T00:56:51.200Z,51.278572
2023-05-03T00:57:44.795Z,51.278564
2023-05-03T00:58:42.794Z,51.278576
2023-05-03T00:59:42.766Z,51.278591
2023-05-03T01:00:42.761Z,51.278538
2023-05-03T01:01:42.787Z,51.278660
2023-05-03T01:02:42.839Z,51.278576
2023-05-03T01:03:42.821Z,51.278610
2023-05-03T01:04:43.405Z,51.278557
2023-05-03T01:05:43.719Z,51.278545
2023-05-03T01:06:42.746Z,51.278587
2023-05-03T01:07:42.703Z,51.278633
2023-05-03T01:08:42.702Z,51.278603
2023-05-03T01:09:42.714Z,51.278599
2023-05-03T01:10:42.669Z,51.278622
2023-05-03T01:11:42.669Z,51.278591
2023-05-03T01:12:42.660Z,51.278561
2023-05-03T01:13:42.676Z,51.278534
2023-05-03T01:14:42.641Z,51.278603
2023-05-03T01:15:42.641Z,51.278595
2023-05-03T01:16:42.766Z,51.278603
2023-05-03T01:17:42.639Z,51.278664
2023-05-03T01:18:42.627Z,51.278610
2023-05-03T01:19:42.599Z,51.278610
2023-05-03T01:20:42.589Z,51.278576
2023-05-03T01:21:42.583Z,51.278530
2023-05-03T01:22:42.573Z,51.278557
2023-05-03T01:23:42.575Z,51.278561
2023-05-03T01:24:42.569Z,51.278606
2023-05-03T01:25:42.549Z,51.278553
2023-05-03T01:26:42.540Z,51.278534
2023-05-03T01:27:42.533Z,51.278629
2023-05-03T01:28:42.539Z,51.278599
2023-05-03T01:29:42.592Z,51.278633
2023-05-03T01:30:42.522Z,51.278610
2023-05-03T01:31:42.565Z,51.278580
2023-05-03T01:32:42.515Z,51.278622
2023-05-03T01:33:42.491Z,51.278542
2023-05-03T01:34:42.475Z,51.278610
2023-05-03T01:35:42.466Z,51.278568
2023-05-03T01:36:42.467Z,51.278530
2023-05-03T01:37:42.453Z,51.278526
2023-05-03T01:38:42.456Z,51.278500
2023-05-03T01:39:42.449Z,51.278576
2023-05-03T01:40:42.424Z,51.278507
2023-05-03T01:41:42.417Z,51.278454
2023-05-03T01:42:42.405Z,51.278603
2023-05-03T01:43:42.400Z,51.278606
2023-05-03T01:44:43.401Z,51.278591
2023-05-03T01:45:42.426Z,51.278507
2023-05-03T01:46:42.368Z,51.278500
2023-05-03T01:47:42.402Z,51.278553
2023-05-03T01:48:42.371Z,51.278542
2023-05-03T01:49:42.349Z,51.278641
2023-05-03T01:50:42.356Z,51.278622
2023-05-03T01:51:42.328Z,51.278664
2023-05-03T01:52:42.322Z,51.278557
2023-05-03T01:53:42.316Z,51.278561
2023-05-03T01:54:42.300Z,51.278461
2023-05-03T01:55:42.290Z,51.278458
2023-05-03T01:56:42.289Z,51.278549
2023-05-03T01:57:42.274Z,51.278648
2023-05-03T01:58:42.277Z,51.278732
2023-05-03T01:59:42.251Z,51.278618
2023-05-03T02:00:42.289Z,51.278679
2023-05-03T02:01:42.392Z,51.278580
2023-05-03T02:02:42.258Z,51.278461
2023-05-03T02:03:42.235Z,51.278484
2023-05-03T02:04:42.211Z,51.278568
2023-05-03T02:05:42.218Z,51.278652
2023-05-03T02:06:42.215Z,51.278652
2023-05-03T02:07:42.200Z,51.278645
2023-05-03T02:08:42.202Z,51.278683
2023-05-03T02:09:42.177Z,51.278698
2023-05-03T02:10:42.166Z,51.278664
2023-05-03T02:11:42.161Z,51.278767
2023-05-03T02:12:42.147Z,51.278629
2023-05-03T02:13:42.152Z,51.278526
2023-05-03T02:14:42.137Z,51.278599
2023-05-03T02:15:42.119Z,51.278519
2023-05-03T02:16:42.135Z,51.278584
2023-05-03T02:17:42.148Z,51.278641
2023-05-03T02:18:42.110Z,51.278664
2023-05-03T02:19:42.097Z,51.278645
2023-05-03T02:20:42.079Z,51.278606
2023-05-03T02:21:42.073Z,51.278599
2023-05-03T02:22:42.064Z,51.278595
2023-05-03T02:23:42.080Z,51.278648
2023-05-03T02:24:42.042Z,51.278610
2023-05-03T02:25:42.042Z,51.278648
2023-05-03T02:26:42.022Z,51.278553
2023-05-03T02:27:42.015Z,51.278591
2023-05-03T02:28:42.022Z,51.278614
2023-05-03T02:29:42.009Z,51.278564
2023-05-03T02:30:42.021Z,51.278637
2023-05-03T02:31:41.984Z,51.278690
2023-05-03T02:32:42.003Z,51.278671
2023-05-03T02:33:42.003Z,51.278610
2023-05-03T02:34:41.963Z,51.278614
2023-05-03T02:35:41.948Z,51.278637
2023-05-03T02:36:41.938Z,51.278637
2023-05-03T02:37:41.934Z,51.278610
2023-05-03T02:38:41.934Z,51.278614
2023-05-03T02:39:41.916Z,51.278542
2023-05-03T02:40:41.909Z,51.278606
2023-05-03T02:41:41.905Z,51.278610
2023-05-03T02:42:41.899Z,51.278629
2023-05-03T02:43:41.885Z,51.278538
2023-05-03T02:44:41.877Z,51.278637
2023-05-03T02:45:41.854Z,51.278725
2023-05-03T02:46:41.888Z,51.278610
2023-05-03T02:47:41.853Z,51.278515
2023-05-03T02:48:41.852Z,51.278660
2023-05-03T02:49:41.820Z,51.278606
2023-05-03T02:50:41.813Z,51.278606
2023-05-03T02:51:41.806Z,51.278599
2023-05-03T02:52:41.794Z,51.278690
2023-05-03T02:53:41.798Z,51.278595
2023-05-03T02:54:41.789Z,51.278728
2023-05-03T02:55:41.771Z,51.278652
2023-05-03T02:56:41.775Z,51.278584
2023-05-03T02:57:42.567Z,51.278553
2023-05-03T02:58:42.762Z,51.278507
2023-05-03T02:59:41.732Z,51.278572
2023-05-03T03:00:41.718Z,51.278568
2023-05-03T03:01:41.761Z,51.278614
2023-05-03T03:02:41.787Z,51.278603
2023-05-03T03:03:41.767Z,51.278664
2023-05-03T03:04:41.696Z,51.278728
2023-05-03T03:05:41.681Z,51.278648
2023-05-03T03:06:41.718Z,51.278667
2023-05-03T03:07:41.662Z,51.278660
2023-05-03T03:08:41.668Z,51.278645
2023-05-03T03:09:41.642Z,51.278679
2023-05-03T03:10:41.629Z,51.278618
2023-05-03T03:11:41.627Z,51.278576
2023-05-03T03:12:41.616Z,51.278614
2023-05-03T03:13:41.622Z,51.278591
2023-05-03T03:14:41.634Z,51.278561
2023-05-03T03:15:41.619Z,51.278580
2023-05-03T03:16:41.593Z,51.278599
2023-05-03T03:17:41.594Z,51.278545
2023-05-03T03:18:41.585Z,51.278484
2023-05-03T03:19:41.563Z,51.278481
2023-05-03T03:20:41.548Z,51.278599
2023-05-03T03:21:41.540Z,51.278519
2023-05-03T03:22:41.535Z,51.278526
2023-05-03T03:23:41.534Z,51.278687
2023-05-03T03:24:41.514Z,51.278572
2023-05-03T03:25:41.505Z,51.278538
2023-05-03T03:26:41.496Z,51.278622
2023-05-03T03:27:41.502Z,51.278572
2023-05-03T03:28:41.494Z,51.278568
2023-05-03T03:29:41.465Z,51.278557
2023-05-03T03:30:41.460Z,51.278496
2023-05-03T03:31:41.486Z,51.278477
2023-05-03T03:32:41.482Z,51.278458
2023-05-03T03:33:41.447Z,51.278507
2023-05-03T03:34:41.425Z,51.278542
2023-05-03T03:35:41.413Z,51.278572
2023-05-03T03:36:41.406Z,51.278629
2023-05-03T03:37:41.393Z,51.278587
2023-05-03T03:38:41.398Z,51.278614
2023-05-03T03:39:41.375Z,51.278568
2023-05-03T03:40:41.370Z,51.278515
2023-05-03T03:41:41.364Z,51.278614
2023-05-03T03:42:41.353Z,51.278568
2023-05-03T03:43:41.354Z,51.278595
2023-05-03T03:44:41.343Z,51.278580
2023-05-03T03:45:41.325Z,51.278557
2023-05-03T03:46:41.339Z,51.278564
2023-05-03T03:47:41.347Z,51.278641
2023-05-03T03:48:41.318Z,51.278656
2023-05-03T03:49:41.294Z,51.278564
2023-05-03T03:51:14.201Z,51.278519
2023-05-03T03:51:41.284Z,51.278332
2023-05-03T03:52:41.270Z,51.278496
2023-05-03T03:53:41.258Z,51.278599
2023-05-03T03:54:42.251Z,51.278606
2023-05-03T03:55:41.238Z,51.278545
2023-05-03T03:56:41.233Z,51.278587
2023-05-03T03:57:41.223Z,51.278587
2023-05-03T03:58:41.244Z,51.278538
2023-05-03T03:59:41.208Z,51.278568
2023-05-03T04:00:41.201Z,51.278580
2023-05-03T04:01:41.235Z,51.278545
2023-05-03T04:02:41.444Z,51.278522
2023-05-03T04:03:41.280Z,51.278477
2023-05-03T04:04:41.167Z,51.278542
2023-05-03T04:05:41.159Z,51.278706
2023-05-03T04:06:41.222Z,51.278809
2023-05-03T04:07:41.125Z,51.278618
2023-05-03T04:08:41.126Z,51.278549
2023-05-03T04:09:41.127Z,51.278618
2023-05-03T04:10:41.106Z,51.278633
2023-05-03T04:11:41.116Z,51.278641
2023-05-03T04:12:41.104Z,51.278595
2023-05-03T04:13:41.108Z,51.278671
2023-05-03T04:14:41.068Z,51.278645
2023-05-03T04:15:41.078Z,51.278625
2023-05-03T04:16:41.073Z,51.278641
2023-05-03T04:17:41.063Z,51.278687
2023-05-03T04:18:41.041Z,51.278679
2023-05-03T04:19:41.023Z,51.278728
2023-05-03T04:20:41.014Z,51.278660
2023-05-03T04:21:41.004Z,51.278572
2023-05-03T04:22:41.003Z,51.278622
2023-05-03T04:23:40.997Z,51.278542
2023-05-03T04:24:40.981Z,51.278564
2023-05-03T04:25:40.975Z,51.278511
2023-05-03T04:26:40.961Z,51.278519
2023-05-03T04:27:40.953Z,51.278564
2023-05-03T04:28:40.959Z,51.278488
2023-05-03T04:29:40.942Z,51.278584
2023-05-03T04:30:40.992Z,51.278591
2023-05-03T04:31:40.928Z,51.278564
2023-05-03T04:32:40.941Z,51.278584
2023-05-03T04:33:40.912Z,51.278591
2023-05-03T04:34:40.896Z,51.278618
2023-05-03T04:35:40.884Z,51.278637
2023-05-03T04:36:40.875Z,51.278645
2023-05-03T04:37:40.873Z,51.278618
2023-05-03T04:38:40.881Z,51.278591
2023-05-03T04:39:40.858Z,51.278610
2023-05-03T04:40:40.846Z,51.278618
2023-05-03T04:41:40.835Z,51.278618
2023-05-03T04:42:40.826Z,51.278645
2023-05-03T04:43:40.831Z,51.278694
2023-05-03T04:44:40.819Z,51.278702
2023-05-03T04:45:40.806Z,51.278591
2023-05-03T04:46:40.901Z,51.278503
2023-05-03T04:47:40.820Z,51.278496
2023-05-03T04:48:40.786Z,51.278542
2023-05-03T04:49:40.760Z,51.278557
2023-05-03T04:50:40.758Z,51.278545
2023-05-03T04:51:40.741Z,51.278645
2023-05-03T04:52:40.744Z,51.278683
2023-05-03T04:53:40.740Z,51.278603
2023-05-03T04:54:40.719Z,51.278526
2023-05-03T04:55:40.739Z,51.278557
2023-05-03T04:56:40.696Z,51.278545
2023-05-03T04:57:40.689Z,51.278568
2023-05-03T04:58:40.699Z,51.278591
2023-05-03T04:59:40.667Z,51.278561
2023-05-03T05:00:40.676Z,51.278526
2023-05-03T05:01:40.663Z,51.278614
2023-05-03T05:02:40.724Z,51.278595
2023-05-03T05:03:40.810Z,51.278614
2023-05-03T05:04:40.644Z,51.278545
2023-05-03T05:05:40.621Z,51.278618
2023-05-03T05:06:40.630Z,51.278599
2023-05-03T05:07:40.592Z,51.278580
2023-05-03T05:08:40.608Z,51.278603
2023-05-03T05:09:40.583Z,51.278530
2023-05-03T05:10:40.569Z,51.278481
2023-05-03T05:11:40.563Z,51.278473
2023-05-03T05:12:40.564Z,51.278473
2023-05-03T05:13:40.562Z,51.278511
2023-05-03T05:14:40.536Z,51.278446
2023-05-03T05:15:40.515Z,51.278572
2023-05-03T05:16:40.560Z,51.278564
2023-05-03T05:17:40.674Z,51.278587
2023-05-03T05:18:40.501Z,51.278610
2023-05-03T05:19:40.479Z,51.278572
2023-05-03T05:20:40.490Z,51.278507
2023-05-03T05:21:40.464Z,51.278496
2023-05-03T05:22:40.452Z,51.278439
2023-05-03T05:23:40.454Z,51.278450
2023-05-03T05:24:40.433Z,51.278492
2023-05-03T05:25:40.436Z,51.278454
2023-05-03T05:26:40.412Z,51.278458
2023-05-03T05:27:40.405Z,51.278442
2023-05-03T05:28:40.427Z,51.278599
2023-05-03T05:29:40.392Z,51.278568
2023-05-03T05:30:40.398Z,51.278511
2023-05-03T05:31:40.406Z,51.278397
2023-05-03T05:32:40.370Z,51.278542
2023-05-03T05:33:40.365Z,51.278351
2023-05-03T05:34:45.596Z,51.278469
2023-05-03T05:35:42.337Z,51.278690
2023-05-03T05:36:40.325Z,51.278721
2023-05-03T05:37:40.322Z,51.278667
2023-05-03T05:38:40.313Z,51.278641
2023-05-03T05:39:40.317Z,51.278603
2023-05-03T05:40:40.287Z,51.278641
2023-05-03T05:41:40.370Z,51.278748
2023-05-03T05:42:40.271Z,51.278625
2023-05-03T05:43:40.278Z,51.278522
2023-05-03T05:44:40.250Z,51.278526
2023-05-03T05:45:40.248Z,51.278481
2023-05-03T05:46:40.310Z,51.278553
2023-05-03T05:47:40.246Z,51.278576
2023-05-03T05:48:40.225Z,51.278744
2023-05-03T05:49:40.210Z,51.278721
2023-05-03T05:50:40.197Z,51.278732
2023-05-03T05:51:40.188Z,51.278706
2023-05-03T05:52:40.192Z,51.278606
2023-05-03T05:53:40.181Z,51.278564
2023-05-03T05:54:40.162Z,51.278507
2023-05-03T05:55:40.152Z,51.278488
2023-05-03T05:56:40.165Z,51.278458
2023-05-03T05:57:40.171Z,51.278507
2023-05-03T05:58:40.136Z,51.278625
2023-05-03T05:59:40.113Z,51.278599
2023-05-03T06:00:40.176Z,51.278587
2023-05-03T06:01:40.159Z,51.278595
2023-05-03T06:02:40.164Z,51.278633
2023-05-03T06:03:40.093Z,51.278660
2023-05-03T06:04:40.087Z,51.278675
2023-05-03T06:05:40.120Z,51.278473
2023-05-03T06:06:40.114Z,51.278446
2023-05-03T06:07:40.060Z,51.278259
2023-05-03T06:08:40.070Z,51.278564
2023-05-03T06:09:40.031Z,51.278515
2023-05-03T06:10:40.010Z,51.278439
2023-05-03T06:11:40.006Z,51.278522
2023-05-03T06:12:39.993Z,51.278408
2023-05-03T06:13:40.002Z,51.278465
2023-05-03T06:14:46.239Z,51.278564
2023-05-03T06:15:41.967Z,51.278614
2023-05-03T06:16:39.980Z,51.278564
2023-05-03T06:17:40.021Z,51.278599
2023-05-03T06:18:39.944Z,51.278584
2023-05-03T06:19:39.928Z,51.278736
2023-05-03T06:20:39.916Z,51.278637
2023-05-03T06:21:39.906Z,51.278629
2023-05-03T06:22:39.928Z,51.278603
2023-05-03T06:23:39.908Z,51.278561
2023-05-03T06:24:39.891Z,51.278572
2023-05-03T06:25:39.862Z,51.278603
2023-05-03T06:26:39.868Z,51.278576
2023-05-03T06:27:39.842Z,51.278614
2023-05-03T06:28:39.844Z,51.278603
2023-05-03T06:29:39.826Z,51.278557
2023-05-03T06:30:39.818Z,51.278549
2023-05-03T06:31:39.845Z,51.278534
2023-05-03T06:32:40.811Z,51.278542
2023-05-03T06:33:39.797Z,51.278603
2023-05-03T06:34:39.776Z,51.278576
2023-05-03T06:35:39.777Z,51.278561
2023-05-03T06:36:39.753Z,51.278496
2023-05-03T06:37:39.740Z,51.278599
2023-05-03T06:38:39.740Z,51.278614
2023-05-03T06:39:39.802Z,51.278431
2023-05-03T06:40:39.712Z,51.278610
2023-05-03T06:41:39.698Z,51.278515
2023-05-03T06:42:39.689Z,51.278564
2023-05-03T06:43:39.691Z,51.278584
2023-05-03T06:44:39.680Z,51.278683
2023-05-03T06:45:39.680Z,51.278568
2023-05-03T06:46:39.678Z,51.278557
2023-05-03T06:47:39.694Z,51.278587
2023-05-03T06:48:39.680Z,51.278473
2023-05-03T06:49:39.611Z,51.278542
2023-05-03T06:50:39.613Z,51.278511
2023-05-03T06:51:39.599Z,51.278515
2023-05-03T06:52:39.597Z,51.278515
2023-05-03T06:53:39.591Z,51.278538
2023-05-03T06:54:39.567Z,51.278564
2023-05-03T06:55:39.572Z,51.278500
2023-05-03T06:56:39.544Z,51.278576
2023-05-03T06:57:39.542Z,51.278580
2023-05-03T06:58:39.542Z,51.278641
2023-05-03T06:59:39.595Z,51.278667
2023-05-03T07:00:39.511Z,51.278614
2023-05-03T07:01:39.639Z,51.278576
2023-05-03T07:02:39.559Z,51.278599
2023-05-03T07:03:41.839Z,51.278580
2023-05-03T07:04:40.473Z,51.278572
2023-05-03T07:05:39.460Z,51.278534
2023-05-03T07:06:52.503Z,51.278595
2023-05-03T07:07:41.458Z,51.278671
2023-05-03T07:08:39.442Z,51.278580
2023-05-03T07:09:43.613Z,51.278564
2023-05-03T07:10:40.412Z,51.278545
2023-05-03T07:11:39.393Z,51.278641
2023-05-03T07:12:39.424Z,51.278530
2023-05-03T07:13:39.412Z,51.278557
2023-05-03T07:14:39.377Z,51.278637
2023-05-03T07:15:39.350Z,51.278618
2023-05-03T07:16:39.375Z,51.278599
2023-05-03T07:17:39.460Z,51.278568
2023-05-03T07:18:39.332Z,51.278576
2023-05-03T07:19:39.307Z,51.278564
2023-05-03T07:20:39.306Z,51.278542
2023-05-03T07:21:39.293Z,51.278530
2023-05-03T07:22:39.293Z,51.278587
2023-05-03T07:23:39.276Z,51.278580
2023-05-03T07:24:39.285Z,51.278561
2023-05-03T07:25:39.325Z,51.278561
2023-05-03T07:26:39.244Z,51.278545
2023-05-03T07:27:39.226Z,51.278614
2023-05-03T07:28:39.230Z,51.278584
2023-05-03T07:29:39.202Z,51.278614
2023-05-03T07:30:39.202Z,51.278618
2023-05-03T07:31:39.184Z,51.278702
2023-05-03T07:32:39.261Z,51.278717
2023-05-03T07:33:39.411Z,51.278706
2023-05-03T07:34:39.173Z,51.278664
2023-05-03T07:35:39.151Z,51.278645
2023-05-03T07:36:39.142Z,51.278610
2023-05-03T07:37:39.125Z,51.278591
2023-05-03T07:38:39.134Z,51.278629
2023-05-03T07:39:39.119Z,51.278591
2023-05-03T07:40:39.130Z,51.278645
2023-05-03T07:41:39.088Z,51.278599
2023-05-03T07:42:39.082Z,51.278633
2023-05-03T07:43:39.089Z,51.278698
2023-05-03T07:44:39.066Z,51.278755
2023-05-03T07:45:39.061Z,51.278759
2023-05-03T07:46:39.040Z,51.278713
2023-05-03T07:47:39.077Z,51.278706
2023-05-03T07:48:39.037Z,51.278717
2023-05-03T07:49:39.143Z,51.278690
2023-05-03T07:50:39.014Z,51.278782
2023-05-03T07:51:39.015Z,51.278755
2023-05-03T07:52:38.990Z,51.278698
2023-05-03T07:53:38.992Z,51.278717
2023-05-03T07:54:38.965Z,51.278713
2023-05-03T07:55:38.956Z,51.278721
2023-05-03T07:56:38.951Z,51.278721
2023-05-03T07:57:38.936Z,51.278690
2023-05-03T07:58:40.669Z,51.278717
2023-05-03T07:59:39.915Z,51.278664
2023-05-03T08:00:38.910Z,51.278629
2023-05-03T08:01:38.920Z,51.278610
2023-05-03T08:02:38.998Z,51.278675
2023-05-03T08:03:40.074Z,51.278629
2023-05-03T08:04:39.093Z,51.278652
2023-05-03T08:05:38.900Z,51.278625
2023-05-03T08:06:38.954Z,51.278618
2023-05-03T08:07:38.834Z,51.278625
2023-05-03T08:08:38.841Z,51.278614
2023-05-03T08:09:38.819Z,51.278625
2023-05-03T08:10:38.807Z,51.278633
2023-05-03T08:11:38.855Z,51.278618
2023-05-03T08:12:38.792Z,51.278564
2023-05-03T08:13:38.795Z,51.278606
2023-05-03T08:14:38.785Z,51.278622
2023-05-03T08:15:38.794Z,51.278595
2023-05-03T08:16:38.756Z,51.278606
2023-05-03T08:17:38.759Z,51.278584
2023-05-03T08:18:38.749Z,51.278584
2023-05-03T08:19:38.729Z,51.278652
2023-05-03T08:20:38.717Z,51.278622
2023-05-03T08:21:38.766Z,51.278625
2023-05-03T08:22:38.705Z,51.278625
2023-05-03T08:23:38.711Z,51.278633
2023-05-03T08:24:38.679Z,51.278637
2023-05-03T08:25:38.683Z,51.278625
2023-05-03T08:26:38.665Z,51.278633
2023-05-03T08:27:38.655Z,51.278622
2023-05-03T08:28:38.651Z,51.278595
2023-05-03T08:29:38.642Z,51.278549
2023-05-03T08:30:38.618Z,51.278683
2023-05-03T08:31:38.738Z,51.278645
2023-05-03T08:32:38.670Z,51.278633
2023-05-03T08:33:38.670Z,51.278656
2023-05-03T08:34:38.696Z,51.278683
2023-05-03T08:35:38.665Z,51.278664
2023-05-03T08:36:38.658Z,51.278664
2023-05-03T08:37:38.644Z,51.278637
2023-05-03T08:38:38.578Z,51.278614
2023-05-03T08:39:38.691Z,51.278633
2023-05-03T08:40:38.533Z,51.278629
2023-05-03T08:41:38.518Z,51.278633
2023-05-03T08:42:38.512Z,51.278610
2023-05-03T08:43:38.495Z,51.278641
2023-05-03T08:44:38.495Z,51.278656
2023-05-03T08:45:38.479Z,51.278610
2023-05-03T08:46:38.502Z,51.278625
2023-05-03T08:47:38.522Z,51.278599
2023-05-03T08:48:38.445Z,51.278591
2023-05-03T08:49:38.466Z,51.278587
2023-05-03T08:50:38.434Z,51.278568
2023-05-03T08:51:38.490Z,51.278641
2023-05-03T08:52:38.433Z,51.278645
2023-05-03T08:53:38.480Z,51.278633
2023-05-03T08:54:38.558Z,51.278610
2023-05-03T08:55:38.412Z,51.278580
2023-05-03T08:56:38.378Z,51.278629
2023-05-03T08:57:38.381Z,51.278648
2023-05-03T08:58:38.346Z,51.278648
2023-05-03T08:59:38.352Z,51.278641
2023-05-03T09:00:38.351Z,51.278667
2023-05-03T09:01:38.359Z,51.278671
2023-05-03T09:02:38.397Z,51.278679
2023-05-03T09:03:38.418Z,51.278591
2023-05-03T09:04:38.301Z,51.278629
2023-05-03T09:05:38.276Z,51.278595
2023-05-03T09:06:38.494Z,51.278633
2023-05-03T09:07:38.255Z,51.278595
2023-05-03T09:08:38.245Z,51.278618
2023-05-03T09:09:38.245Z,51.278625
2023-05-03T09:10:38.240Z,51.278595
2023-05-03T09:11:38.219Z,51.278633
2023-05-03T09:12:38.212Z,51.278625
2023-05-03T09:13:38.192Z,51.278633
2023-05-03T09:14:38.197Z,51.278580
2023-05-03T09:15:38.187Z,51.278561
2023-05-03T09:16:38.205Z,51.278576
2023-05-03T09:17:38.171Z,51.278591
2023-05-03T09:18:38.141Z,51.278587
2023-05-03T09:19:38.145Z,51.278667
2023-05-03T09:20:38.124Z,51.278629
2023-05-03T09:21:38.108Z,51.278587
2023-05-03T09:22:38.106Z,51.278564
2023-05-03T09:23:38.235Z,51.278553
2023-05-03T09:24:38.127Z,51.278652
2023-05-03T09:25:38.096Z,51.278679
2023-05-03T09:26:38.061Z,51.278614
2023-05-03T09:27:38.051Z,51.278553
2023-05-03T09:28:38.089Z,51.278515
2023-05-03T09:29:38.068Z,51.278553
2023-05-03T09:30:38.030Z,51.278599
2023-05-03T09:31:38.099Z,51.278599
2023-05-03T09:32:38.027Z,51.278580
2023-05-03T09:33:38.008Z,51.278530
2023-05-03T09:34:37.995Z,51.278587
2023-05-03T09:35:37.967Z,51.278492
2023-05-03T09:36:37.965Z,51.278561
2023-05-03T09:37:37.960Z,51.278553
2023-05-03T09:38:37.950Z,51.278652
2023-05-03T09:39:37.944Z,51.278587
2023-05-03T09:40:37.919Z,51.278538
2023-05-03T09:41:38.012Z,51.278500
2023-05-03T09:42:37.917Z,51.278511
2023-05-03T09:43:37.892Z,51.278534
2023-05-03T09:44:37.886Z,51.278530
2023-05-03T09:45:38.031Z,51.278484
2023-05-03T09:46:37.864Z,51.278450
2023-05-03T09:47:37.895Z,51.278507
2023-05-03T09:48:37.851Z,51.278496
2023-05-03T09:49:37.885Z,51.278500
2023-05-03T09:51:09.717Z,51.278507
2023-05-03T09:51:37.806Z,51.278553
2023-05-03T09:52:37.800Z,51.278572
2023-05-03T09:53:37.850Z,51.278538
2023-05-03T09:54:37.836Z,51.278530
2023-05-03T09:55:37.819Z,51.278522
2023-05-03T09:56:37.790Z,51.278595
2023-05-03T09:57:37.744Z,51.278553
2023-05-03T09:58:37.731Z,51.278561
2023-05-03T09:59:38.790Z,51.278580
2023-05-03T10:00:37.716Z,51.278538
2023-05-03T10:01:37.750Z,51.278515
2023-05-03T10:02:37.787Z,51.278503
2023-05-03T10:03:37.752Z,51.278500
2023-05-03T10:04:37.691Z,51.278484
2023-05-03T10:05:37.678Z,51.278503
2023-05-03T10:06:37.692Z,51.278515
2023-05-03T10:07:37.655Z,51.278538
2023-05-03T10:08:37.660Z,51.278481
2023-05-03T10:09:37.779Z,51.278538
2023-05-03T10:10:37.636Z,51.278526
2023-05-03T10:11:37.620Z,51.278538
2023-05-03T10:12:37.614Z,51.278557
2023-05-03T10:13:37.601Z,51.278591
2023-05-03T10:14:37.597Z,51.278584
2023-05-03T10:15:37.613Z,51.278557
2023-05-03T10:16:37.567Z,51.278542
2023-05-03T10:17:47.880Z,51.278522
2023-05-03T10:18:39.540Z,51.278561
2023-05-03T10:19:37.538Z,51.278572
2023-05-03T10:20:37.522Z,51.278545
2023-05-03T10:21:37.522Z,51.278545
2023-05-03T10:22:37.499Z,51.278568
2023-05-03T10:23:37.488Z,51.278503
2023-05-03T10:24:37.492Z,51.278564
2023-05-03T10:25:37.468Z,51.278568
2023-05-03T10:26:37.477Z,51.278545
2023-05-03T10:27:37.444Z,51.278545
2023-05-03T10:28:37.436Z,51.278538
2023-05-03T10:29:37.549Z,51.278542
2023-05-03T10:30:37.412Z,51.278584
2023-05-03T10:31:37.455Z,51.278553
2023-05-03T10:32:37.397Z,51.278568
2023-05-03T10:33:37.387Z,51.278580
2023-05-03T10:34:37.436Z,51.278545
2023-05-03T10:35:37.360Z,51.278572
2023-05-03T10:36:48.757Z,51.278545
2023-05-03T10:37:39.331Z,51.278553
2023-05-03T10:38:37.328Z,51.278557
2023-05-03T10:39:37.327Z,51.278599
2023-05-03T10:40:37.300Z,51.278545
2023-05-03T10:41:37.292Z,51.278622
2023-05-03T10:42:37.287Z,51.278568
2023-05-03T10:43:37.273Z,51.278580
2023-05-03T10:44:37.278Z,51.278564
2023-05-03T10:45:37.256Z,51.278564
2023-05-03T10:46:37.262Z,51.278568
2023-05-03T10:47:37.252Z,51.278576
2023-05-03T10:48:37.225Z,51.278557
2023-05-03T10:49:37.225Z,51.278591
2023-05-03T10:50:37.200Z,51.278549
2023-05-03T10:51:37.515Z,51.278591
2023-05-03T10:52:37.183Z,51.278553
2023-05-03T10:53:37.170Z,51.278545
2023-05-03T10:54:37.178Z,51.278519
2023-05-03T10:55:37.151Z,51.278584
2023-05-03T10:56:37.144Z,51.278568
2023-05-03T10:57:39.508Z,51.278530
2023-05-03T10:58:37.124Z,51.278572
2023-05-03T10:59:37.133Z,51.278568
2023-05-03T11:00:37.130Z,51.278587
2023-05-03T11:01:37.189Z,51.278614
2023-05-03T11:02:37.109Z,51.278618
2023-05-03T11:03:37.085Z,51.278633
2023-05-03T11:04:37.110Z,51.278610
2023-05-03T11:05:37.074Z,51.278618
2023-05-03T11:06:37.251Z,51.278614
2023-05-03T11:07:37.027Z,51.278614
2023-05-03T11:08:37.030Z,51.278625
2023-05-03T11:09:37.022Z,51.278576
2023-05-03T11:10:37.006Z,51.278557
2023-05-03T11:11:36.996Z,51.278568
2023-05-03T11:12:36.984Z,51.278614
2023-05-03T11:13:37.006Z,51.278549
2023-05-03T11:14:36.986Z,51.278610
2023-05-03T11:15:36.951Z,51.278618
2023-05-03T11:16:37.092Z,51.278618
2023-05-03T11:17:37.054Z,51.278618
2023-05-03T11:18:36.934Z,51.278603
2023-05-03T11:19:36.932Z,51.278690
2023-05-03T11:20:36.907Z,51.278690
2023-05-03T11:21:36.905Z,51.278641
2023-05-03T11:22:36.884Z,51.278625
2023-05-03T11:23:36.874Z,51.278637
2023-05-03T11:24:36.876Z,51.278629